sensor_id;sensor_type;location;lat;lon;timestamp;temperature;humidity
34640;DHT22;22600;48.186;11.526;2023-04-03T00:00:48;22.30;59.00
34640;DHT22;22600;48.186;11.526;2023-04-03T00:03:15;22.30;58.80
34640;DHT22;22600;48.186;11.526;2023-04-03T00:05:40;22.30;59.00
34640;DHT22;22600;48.186;11.526;2023-04-03T00:08:06;22.40;59.30
34640;DHT22;22600;48.186;11.526;2023-04-03T00:10:33;22.40;59.30
34640;DHT22;22600;48.186;11.526;2023-04-03T00:12:58;22.40;59.30
34640;DHT22;22600;48.186;11.526;2023-04-03T00:15:24;22.40;59.40
34640;DHT22;22600;48.186;11.526;2023-04-03T00:17:50;22.30;59.30
34640;DHT22;22600;48.186;11.526;2023-04-03T00:20:15;22.40;59.40
34640;DHT22;22600;48.186;11.526;2023-04-03T00:22:41;22.40;59.40
34640;DHT22;22600;48.186;11.526;2023-04-03T00:25:06;22.40;59.30
34640;DHT22;22600;48.186;11.526;2023-04-03T00:27:32;22.30;59.20
34640;DHT22;22600;48.186;11.526;2023-04-03T00:29:57;22.40;59.10
34640;DHT22;22600;48.186;11.526;2023-04-03T00:32:23;22.40;59.00
34640;DHT22;22600;48.186;11.526;2023-04-03T00:34:48;22.40;58.90
34640;DHT22;22600;48.186;11.526;2023-04-03T00:37:14;22.30;58.90
34640;DHT22;22600;48.186;11.526;2023-04-03T00:39:39;22.30;59.00
34640;DHT22;22600;48.186;11.526;2023-04-03T00:42:05;22.40;59.20
34640;DHT22;22600;48.186;11.526;2023-04-03T00:46:59;22.40;59.00
34640;DHT22;22600;48.186;11.526;2023-04-03T00:49:25;22.40;59.40
34640;DHT22;22600;48.186;11.526;2023-04-03T00:51:51;22.40;59.50
34640;DHT22;22600;48.186;11.526;2023-04-03T00:54:16;22.40;59.40
34640;DHT22;22600;48.186;11.526;2023-04-03T00:56:42;22.40;59.40
34640;DHT22;22600;48.186;11.526;2023-04-03T00:59:12;22.40;59.30
34640;DHT22;22600;48.186;11.526;2023-04-03T01:01:38;22.40;59.20
34640;DHT22;22600;48.186;11.526;2023-04-03T01:04:03;22.40;59.20
34640;DHT22;22600;48.186;11.526;2023-04-03T01:06:32;22.30;59.10
34640;DHT22;22600;48.186;11.526;2023-04-03T01:08:59;22.40;59.10
34640;DHT22;22600;48.186;11.526;2023-04-03T01:11:24;22.40;59.10
34640;DHT22;22600;48.186;11.526;2023-04-03T01:13:51;22.40;59.10
34640;DHT22;22600;48.186;11.526;2023-04-03T01:16:17;22.40;59.10
34640;DHT22;22600;48.186;11.526;2023-04-03T01:18:42;22.40;59.10
34640;DHT22;22600;48.186;11.526;2023-04-03T01:21:13;22.40;59.50
34640;DHT22;22600;48.186;11.526;2023-04-03T01:23:45;22.40;59.40
34640;DHT22;22600;48.186;11.526;2023-04-03T01:26:13;22.40;59.50
34640;DHT22;22600;48.186;11.526;2023-04-03T01:28:39;22.60;59.50
34640;DHT22;22600;48.186;11.526;2023-04-03T01:33:33;22.40;59.30
34640;DHT22;22600;48.186;11.526;2023-04-03T01:35:59;22.30;59.30
34640;DHT22;22600;48.186;11.526;2023-04-03T01:38:25;22.50;59.40
34640;DHT22;22600;48.186;11.526;2023-04-03T01:40:50;24.50;60.40
34640;DHT22;22600;48.186;11.526;2023-04-03T01:43:16;22.40;59.30
34640;DHT22;22600;48.186;11.526;2023-04-03T01:45:41;22.40;59.20
34640;DHT22;22600;48.186;11.526;2023-04-03T01:48:07;22.40;59.30
34640;DHT22;22600;48.186;11.526;2023-04-03T01:50:33;22.40;59.30
34640;DHT22;22600;48.186;11.526;2023-04-03T01:52:58;22.40;59.30
34640;DHT22;22600;48.186;11.526;2023-04-03T01:55:24;22.40;59.20
34640;DHT22;22600;48.186;11.526;2023-04-03T01:57:49;22.30;59.20
34640;DHT22;22600;48.186;11.526;2023-04-03T02:00:15;22.40;59.20
34640;DHT22;22600;48.186;11.526;2023-04-03T02:02:40;22.40;59.20
34640;DHT22;22600;48.186;11.526;2023-04-03T02:05:06;22.40;59.40
34640;DHT22;22600;48.186;11.526;2023-04-03T02:07:31;22.40;59.30
34640;DHT22;22600;48.186;11.526;2023-04-03T02:09:57;22.40;59.30
34640;DHT22;22600;48.186;11.526;2023-04-03T02:12:22;22.40;59.30
34640;DHT22;22600;48.186;11.526;2023-04-03T02:14:48;23.20;59.70
34640;DHT22;22600;48.186;11.526;2023-04-03T02:17:13;22.40;59.20
34640;DHT22;22600;48.186;11.526;2023-04-03T02:19:39;22.40;59.10
34640;DHT22;22600;48.186;11.526;2023-04-03T02:22:05;22.40;59.10
34640;DHT22;22600;48.186;11.526;2023-04-03T02:24:30;22.40;59.20
34640;DHT22;22600;48.186;11.526;2023-04-03T02:26:56;22.40;59.20
34640;DHT22;22600;48.186;11.526;2023-04-03T02:29:22;22.40;59.10
34640;DHT22;22600;48.186;11.526;2023-04-03T02:31:47;24.80;60.50
34640;DHT22;22600;48.186;11.526;2023-04-03T02:34:13;22.40;59.30
34640;DHT22;22600;48.186;11.526;2023-04-03T02:36:38;22.40;59.20
34640;DHT22;22600;48.186;11.526;2023-04-03T02:39:04;22.40;59.20
34640;DHT22;22600;48.186;11.526;2023-04-03T02:41:29;22.40;59.20
34640;DHT22;22600;48.186;11.526;2023-04-03T02:44:00;22.30;59.30
34640;DHT22;22600;48.186;11.526;2023-04-03T02:46:26;22.30;59.20
34640;DHT22;22600;48.186;11.526;2023-04-03T02:48:51;22.30;59.20
34640;DHT22;22600;48.186;11.526;2023-04-03T02:51:17;22.40;59.10
34640;DHT22;22600;48.186;11.526;2023-04-03T02:53:43;22.30;59.00
34640;DHT22;22600;48.186;11.526;2023-04-03T02:56:08;22.30;59.00
34640;DHT22;22600;48.186;11.526;2023-04-03T02:58:34;22.30;59.00
34640;DHT22;22600;48.186;11.526;2023-04-03T03:00:59;22.30;59.00
34640;DHT22;22600;48.186;11.526;2023-04-03T03:03:25;22.30;59.00
34640;DHT22;22600;48.186;11.526;2023-04-03T03:06:00;22.40;59.10
34640;DHT22;22600;48.186;11.526;2023-04-03T03:08:25;22.40;59.40
34640;DHT22;22600;48.186;11.526;2023-04-03T03:10:50;22.30;59.30
34640;DHT22;22600;48.186;11.526;2023-04-03T03:13:16;22.30;59.40
34640;DHT22;22600;48.186;11.526;2023-04-03T03:15:42;22.30;59.40
34640;DHT22;22600;48.186;11.526;2023-04-03T03:18:08;22.40;59.40
34640;DHT22;22600;48.186;11.526;2023-04-03T03:20:33;22.30;59.40
34640;DHT22;22600;48.186;11.526;2023-04-03T03:22:58;22.30;59.30
34640;DHT22;22600;48.186;11.526;2023-04-03T03:25:24;19.50;58.00
34640;DHT22;22600;48.186;11.526;2023-04-03T03:27:49;22.30;59.30
34640;DHT22;22600;48.186;11.526;2023-04-03T03:30:15;22.30;59.30
34640;DHT22;22600;48.186;11.526;2023-04-03T03:32:40;22.30;59.30
34640;DHT22;22600;48.186;11.526;2023-04-03T03:35:06;22.30;58.90
34640;DHT22;22600;48.186;11.526;2023-04-03T03:37:32;22.30;57.90
34640;DHT22;22600;48.186;11.526;2023-04-03T03:39:57;22.30;57.80
34640;DHT22;22600;48.186;11.526;2023-04-03T03:42:22;22.30;57.30
34640;DHT22;22600;48.186;11.526;2023-04-03T03:44:48;22.30;57.10
34640;DHT22;22600;48.186;11.526;2023-04-03T03:47:13;22.30;57.40
34640;DHT22;22600;48.186;11.526;2023-04-03T03:49:39;22.30;57.40
34640;DHT22;22600;48.186;11.526;2023-04-03T03:52:06;22.30;57.00
34640;DHT22;22600;48.186;11.526;2023-04-03T03:54:31;22.30;57.50
34640;DHT22;22600;48.186;11.526;2023-04-03T03:56:57;22.40;57.60
34640;DHT22;22600;48.186;11.526;2023-04-03T03:59:22;22.30;57.60
34640;DHT22;22600;48.186;11.526;2023-04-03T04:01:47;22.20;57.60
34640;DHT22;22600;48.186;11.526;2023-04-03T04:04:13;22.30;57.70
34640;DHT22;22600;48.186;11.526;2023-04-03T04:06:38;22.30;57.60
34640;DHT22;22600;48.186;11.526;2023-04-03T04:09:04;22.30;57.70
34640;DHT22;22600;48.186;11.526;2023-04-03T04:11:29;22.30;57.70
34640;DHT22;22600;48.186;11.526;2023-04-03T04:13:55;22.30;57.80
34640;DHT22;22600;48.186;11.526;2023-04-03T04:16:20;22.30;58.20
34640;DHT22;22600;48.186;11.526;2023-04-03T04:18:46;22.30;57.70
34640;DHT22;22600;48.186;11.526;2023-04-03T04:21:11;22.30;57.80
34640;DHT22;22600;48.186;11.526;2023-04-03T04:23:36;22.30;57.80
34640;DHT22;22600;48.186;11.526;2023-04-03T04:26:02;22.30;57.70
34640;DHT22;22600;48.186;11.526;2023-04-03T04:28:27;22.30;57.70
34640;DHT22;22600;48.186;11.526;2023-04-03T04:30:53;22.30;57.70
34640;DHT22;22600;48.186;11.526;2023-04-03T04:33:18;22.30;57.70
34640;DHT22;22600;48.186;11.526;2023-04-03T04:35:46;22.40;57.80
34640;DHT22;22600;48.186;11.526;2023-04-03T04:38:12;22.30;57.70
34640;DHT22;22600;48.186;11.526;2023-04-03T04:40:37;22.30;57.70
34640;DHT22;22600;48.186;11.526;2023-04-03T04:43:02;22.20;57.60
34640;DHT22;22600;48.186;11.526;2023-04-03T04:45:28;22.20;57.70
34640;DHT22;22600;48.186;11.526;2023-04-03T04:47:55;22.20;57.60
34640;DHT22;22600;48.186;11.526;2023-04-03T04:50:20;22.20;57.70
34640;DHT22;22600;48.186;11.526;2023-04-03T04:52:46;22.20;57.70
34640;DHT22;22600;48.186;11.526;2023-04-03T04:55:11;22.20;57.60
34640;DHT22;22600;48.186;11.526;2023-04-03T04:57:37;22.20;57.60
34640;DHT22;22600;48.186;11.526;2023-04-03T05:00:04;22.20;57.60
34640;DHT22;22600;48.186;11.526;2023-04-03T05:02:30;22.20;57.60
34640;DHT22;22600;48.186;11.526;2023-04-03T05:04:56;23.90;58.50
34640;DHT22;22600;48.186;11.526;2023-04-03T05:07:21;20.70;56.90
34640;DHT22;22600;48.186;11.526;2023-04-03T05:09:47;22.20;57.60
34640;DHT22;22600;48.186;11.526;2023-04-03T05:12:12;19.30;56.20
34640;DHT22;22600;48.186;11.526;2023-04-03T05:14:38;22.20;57.60
34640;DHT22;22600;48.186;11.526;2023-04-03T05:17:03;22.20;57.60
34640;DHT22;22600;48.186;11.526;2023-04-03T05:19:29;22.20;57.60
34640;DHT22;22600;48.186;11.526;2023-04-03T05:21:54;22.20;57.60
34640;DHT22;22600;48.186;11.526;2023-04-03T05:24:20;22.20;57.60
34640;DHT22;22600;48.186;11.526;2023-04-03T05:26:45;22.20;57.60
34640;DHT22;22600;48.186;11.526;2023-04-03T05:29:11;22.30;57.70
34640;DHT22;22600;48.186;11.526;2023-04-03T05:31:36;22.20;57.60
34640;DHT22;22600;48.186;11.526;2023-04-03T05:34:02;22.30;57.60
34640;DHT22;22600;48.186;11.526;2023-04-03T05:36:28;22.20;57.60
34640;DHT22;22600;48.186;11.526;2023-04-03T05:38:53;23.00;58.00
34640;DHT22;22600;48.186;11.526;2023-04-03T05:41:21;22.20;57.60
34640;DHT22;22600;48.186;11.526;2023-04-03T05:43:47;22.20;57.60
34640;DHT22;22600;48.186;11.526;2023-04-03T05:46:13;22.20;57.60
34640;DHT22;22600;48.186;11.526;2023-04-03T05:48:39;22.20;57.60
34640;DHT22;22600;48.186;11.526;2023-04-03T05:51:05;22.20;57.60
34640;DHT22;22600;48.186;11.526;2023-04-03T05:53:31;22.20;57.60
34640;DHT22;22600;48.186;11.526;2023-04-03T05:55:58;22.20;57.60
34640;DHT22;22600;48.186;11.526;2023-04-03T05:58:23;22.20;57.60
34640;DHT22;22600;48.186;11.526;2023-04-03T06:00:49;22.20;57.60
34640;DHT22;22600;48.186;11.526;2023-04-03T06:03:14;22.20;57.60
34640;DHT22;22600;48.186;11.526;2023-04-03T06:05:40;22.30;57.60
34640;DHT22;22600;48.186;11.526;2023-04-03T06:08:06;22.20;57.60
34640;DHT22;22600;48.186;11.526;2023-04-03T06:10:32;22.20;57.60
34640;DHT22;22600;48.186;11.526;2023-04-03T06:12:57;22.10;57.50
34640;DHT22;22600;48.186;11.526;2023-04-03T06:15:23;22.20;57.50
34640;DHT22;22600;48.186;11.526;2023-04-03T06:17:49;22.20;57.50
34640;DHT22;22600;48.186;11.526;2023-04-03T06:20:14;22.30;57.60
34640;DHT22;22600;48.186;11.526;2023-04-03T06:22:40;22.20;57.50
34640;DHT22;22600;48.186;11.526;2023-04-03T06:25:07;22.20;57.50
34640;DHT22;22600;48.186;11.526;2023-04-03T06:27:32;22.20;57.50
34640;DHT22;22600;48.186;11.526;2023-04-03T06:29:58;22.10;57.50
34640;DHT22;22600;48.186;11.526;2023-04-03T06:32:24;22.10;57.50
34640;DHT22;22600;48.186;11.526;2023-04-03T06:34:49;22.10;57.50
34640;DHT22;22600;48.186;11.526;2023-04-03T06:37:15;22.00;57.40
34640;DHT22;22600;48.186;11.526;2023-04-03T06:39:41;22.10;57.40
34640;DHT22;22600;48.186;11.526;2023-04-03T06:42:07;22.20;57.50
34640;DHT22;22600;48.186;11.526;2023-04-03T06:44:32;22.00;57.30
34640;DHT22;22600;48.186;11.526;2023-04-03T06:46:59;22.10;57.40
34640;DHT22;22600;48.186;11.526;2023-04-03T06:49:25;22.10;57.40
34640;DHT22;22600;48.186;11.526;2023-04-03T06:51:51;22.10;57.40
34640;DHT22;22600;48.186;11.526;2023-04-03T06:54:17;22.20;57.40
34640;DHT22;22600;48.186;11.526;2023-04-03T06:56:42;22.10;58.00
34640;DHT22;22600;48.186;11.526;2023-04-03T06:59:09;22.10;56.30
34640;DHT22;22600;48.186;11.526;2023-04-03T07:01:34;22.10;55.70
34640;DHT22;22600;48.186;11.526;2023-04-03T07:04:00;22.20;55.60
34640;DHT22;22600;48.186;11.526;2023-04-03T07:06:25;22.20;55.60
34640;DHT22;22600;48.186;11.526;2023-04-03T07:08:54;22.10;55.50
34640;DHT22;22600;48.186;11.526;2023-04-03T07:11:20;22.10;55.60
34640;DHT22;22600;48.186;11.526;2023-04-03T07:13:45;22.20;55.60
34640;DHT22;22600;48.186;11.526;2023-04-03T07:16:11;22.20;55.60
34640;DHT22;22600;48.186;11.526;2023-04-03T07:18:36;22.20;55.60
34640;DHT22;22600;48.186;11.526;2023-04-03T07:21:02;22.90;55.90
34640;DHT22;22600;48.186;11.526;2023-04-03T07:23:28;22.20;55.30
34640;DHT22;22600;48.186;11.526;2023-04-03T07:25:53;22.20;55.10
34640;DHT22;22600;48.186;11.526;2023-04-03T07:28:19;25.40;56.70
34640;DHT22;22600;48.186;11.526;2023-04-03T07:30:49;22.20;55.00
34640;DHT22;22600;48.186;11.526;2023-04-03T07:33:16;22.20;55.10
34640;DHT22;22600;48.186;11.526;2023-04-03T07:35:42;22.20;55.00
34640;DHT22;22600;48.186;11.526;2023-04-03T07:38:08;25.20;56.20
34640;DHT22;22600;48.186;11.526;2023-04-03T07:40:33;22.20;54.60
34640;DHT22;22600;48.186;11.526;2023-04-03T07:42:59;22.20;54.50
34640;DHT22;22600;48.186;11.526;2023-04-03T07:45:25;22.30;54.50
34640;DHT22;22600;48.186;11.526;2023-04-03T07:47:50;22.20;54.40
34640;DHT22;22600;48.186;11.526;2023-04-03T07:50:16;22.20;54.30
34640;DHT22;22600;48.186;11.526;2023-04-03T07:52:42;22.20;54.40
34640;DHT22;22600;48.186;11.526;2023-04-03T07:55:08;22.20;54.90
34640;DHT22;22600;48.186;11.526;2023-04-03T07:57:33;22.20;54.30
34640;DHT22;22600;48.186;11.526;2023-04-03T07:59:59;22.10;54.20
34640;DHT22;22600;48.186;11.526;2023-04-03T08:02:24;22.30;54.30
34640;DHT22;22600;48.186;11.526;2023-04-03T08:04:50;22.20;54.30
34640;DHT22;22600;48.186;11.526;2023-04-03T08:07:15;22.20;54.30
34640;DHT22;22600;48.186;11.526;2023-04-03T08:09:41;22.20;54.40
34640;DHT22;22600;48.186;11.526;2023-04-03T08:12:07;22.20;54.50
34640;DHT22;22600;48.186;11.526;2023-04-03T08:14:32;22.20;54.50
34640;DHT22;22600;48.186;11.526;2023-04-03T08:17:00;22.20;54.50
34640;DHT22;22600;48.186;11.526;2023-04-03T08:19:26;22.20;54.50
34640;DHT22;22600;48.186;11.526;2023-04-03T08:21:55;22.20;54.60
34640;DHT22;22600;48.186;11.526;2023-04-03T08:24:21;22.20;54.70
34640;DHT22;22600;48.186;11.526;2023-04-03T08:26:47;22.20;54.60
34640;DHT22;22600;48.186;11.526;2023-04-03T08:29:12;22.30;54.80
34640;DHT22;22600;48.186;11.526;2023-04-03T08:31:38;22.20;54.60
34640;DHT22;22600;48.186;11.526;2023-04-03T08:34:04;22.20;54.50
34640;DHT22;22600;48.186;11.526;2023-04-03T08:36:30;22.20;54.50
34640;DHT22;22600;48.186;11.526;2023-04-03T08:38:56;22.20;54.40
34640;DHT22;22600;48.186;11.526;2023-04-03T08:43:53;22.20;54.40
34640;DHT22;22600;48.186;11.526;2023-04-03T08:46:20;22.20;54.40
34640;DHT22;22600;48.186;11.526;2023-04-03T08:48:47;22.30;54.40
34640;DHT22;22600;48.186;11.526;2023-04-03T08:51:15;22.30;55.00
34640;DHT22;22600;48.186;11.526;2023-04-03T08:53:42;22.20;54.40
34640;DHT22;22600;48.186;11.526;2023-04-03T08:56:08;22.30;54.40
34640;DHT22;22600;48.186;11.526;2023-04-03T08:58:56;22.30;54.40
34640;DHT22;22600;48.186;11.526;2023-04-03T09:01:26;22.20;54.40
34640;DHT22;22600;48.186;11.526;2023-04-03T09:03:53;22.20;54.40
34640;DHT22;22600;48.186;11.526;2023-04-03T09:06:20;22.20;54.40
34640;DHT22;22600;48.186;11.526;2023-04-03T09:08:49;22.20;54.40
34640;DHT22;22600;48.186;11.526;2023-04-03T09:13:59;22.20;54.30
34640;DHT22;22600;48.186;11.526;2023-04-03T09:19:02;22.30;54.30
34640;DHT22;22600;48.186;11.526;2023-04-03T09:21:31;22.30;54.30
34640;DHT22;22600;48.186;11.526;2023-04-03T09:24:00;22.30;54.30
34640;DHT22;22600;48.186;11.526;2023-04-03T09:26:29;22.20;54.20
34640;DHT22;22600;48.186;11.526;2023-04-03T09:28:57;22.20;54.20
34640;DHT22;22600;48.186;11.526;2023-04-03T09:31:26;22.20;54.20
34640;DHT22;22600;48.186;11.526;2023-04-03T09:33:53;22.30;54.20
34640;DHT22;22600;48.186;11.526;2023-04-03T09:39:07;22.30;54.20
34640;DHT22;22600;48.186;11.526;2023-04-03T09:41:35;22.20;54.20
34640;DHT22;22600;48.186;11.526;2023-04-03T09:44:00;22.30;54.30
34640;DHT22;22600;48.186;11.526;2023-04-03T09:46:30;22.60;54.40
34640;DHT22;22600;48.186;11.526;2023-04-03T09:48:58;22.30;54.30
34640;DHT22;22600;48.186;11.526;2023-04-03T09:51:25;22.20;54.20
34640;DHT22;22600;48.186;11.526;2023-04-03T09:53:51;22.20;54.30
34640;DHT22;22600;48.186;11.526;2023-04-03T09:58:46;22.30;54.90
34640;DHT22;22600;48.186;11.526;2023-04-03T10:03:49;22.30;54.20
34640;DHT22;22600;48.186;11.526;2023-04-03T10:06:28;22.30;54.30
34640;DHT22;22600;48.186;11.526;2023-04-03T10:09:00;22.30;54.40
34640;DHT22;22600;48.186;11.526;2023-04-03T10:11:26;22.30;54.40
34640;DHT22;22600;48.186;11.526;2023-04-03T10:13:55;22.30;54.40
34640;DHT22;22600;48.186;11.526;2023-04-03T10:16:26;22.30;54.40
34640;DHT22;22600;48.186;11.526;2023-04-03T10:19:03;22.30;54.30
34640;DHT22;22600;48.186;11.526;2023-04-03T10:21:35;21.00;53.70
34640;DHT22;22600;48.186;11.526;2023-04-03T10:24:08;22.30;54.30
34640;DHT22;22600;48.186;11.526;2023-04-03T10:26:45;22.30;54.30
34640;DHT22;22600;48.186;11.526;2023-04-03T10:29:17;22.30;54.30
34640;DHT22;22600;48.186;11.526;2023-04-03T10:31:53;22.30;54.30
34640;DHT22;22600;48.186;11.526;2023-04-03T10:34:24;22.30;54.30
34640;DHT22;22600;48.186;11.526;2023-04-03T10:37:10;22.30;54.30
34640;DHT22;22600;48.186;11.526;2023-04-03T10:39:58;22.30;54.30
34640;DHT22;22600;48.186;11.526;2023-04-03T10:42:37;22.20;54.20
34640;DHT22;22600;48.186;11.526;2023-04-03T10:47:46;22.30;54.20
34640;DHT22;22600;48.186;11.526;2023-04-03T10:50:22;22.30;54.30
34640;DHT22;22600;48.186;11.526;2023-04-03T10:58:01;22.30;54.30
34640;DHT22;22600;48.186;11.526;2023-04-03T11:03:01;22.30;54.20
34640;DHT22;22600;48.186;11.526;2023-04-03T11:05:32;23.20;54.70
34640;DHT22;22600;48.186;11.526;2023-04-03T11:08:02;22.30;54.20
34640;DHT22;22600;48.186;11.526;2023-04-03T11:12:57;22.30;54.20
34640;DHT22;22600;48.186;11.526;2023-04-03T11:15:23;22.30;54.30
34640;DHT22;22600;48.186;11.526;2023-04-03T11:18:02;22.30;54.20
34640;DHT22;22600;48.186;11.526;2023-04-03T11:20:30;22.30;54.20
34640;DHT22;22600;48.186;11.526;2023-04-03T11:23:00;22.30;54.20
34640;DHT22;22600;48.186;11.526;2023-04-03T11:25:26;22.30;54.20
34640;DHT22;22600;48.186;11.526;2023-04-03T11:28:04;22.30;54.20
34640;DHT22;22600;48.186;11.526;2023-04-03T11:35:42;22.30;54.20
34640;DHT22;22600;48.186;11.526;2023-04-03T11:38:10;22.30;54.20
34640;DHT22;22600;48.186;11.526;2023-04-03T11:40:39;22.30;54.20
34640;DHT22;22600;48.186;11.526;2023-04-03T11:43:07;22.20;54.10
34640;DHT22;22600;48.186;11.526;2023-04-03T11:45:37;22.20;54.10
34640;DHT22;22600;48.186;11.526;2023-04-03T11:48:04;22.30;54.20
34640;DHT22;22600;48.186;11.526;2023-04-03T11:58:17;22.30;54.70
34640;DHT22;22600;48.186;11.526;2023-04-03T12:16:04;22.30;54.50
34640;DHT22;22600;48.186;11.526;2023-04-03T12:18:41;22.30;54.50
34640;DHT22;22600;48.186;11.526;2023-04-03T12:21:08;22.30;54.40
34640;DHT22;22600;48.186;11.526;2023-04-03T12:23:34;22.50;54.60
34640;DHT22;22600;48.186;11.526;2023-04-03T12:26:01;21.90;54.20
34640;DHT22;22600;48.186;11.526;2023-04-03T12:28:29;22.30;54.40
34640;DHT22;22600;48.186;11.526;2023-04-03T12:30:54;22.30;54.40
34640;DHT22;22600;48.186;11.526;2023-04-03T12:33:27;22.30;54.40
34640;DHT22;22600;48.186;11.526;2023-04-03T12:46:22;22.30;54.30
34640;DHT22;22600;48.186;11.526;2023-04-03T12:48:49;22.30;54.40
34640;DHT22;22600;48.186;11.526;2023-04-03T12:51:18;22.30;54.30
34640;DHT22;22600;48.186;11.526;2023-04-03T12:53:44;22.40;54.40
34640;DHT22;22600;48.186;11.526;2023-04-03T12:58:52;22.30;54.40
34640;DHT22;22600;48.186;11.526;2023-04-03T13:01:19;22.30;54.40
34640;DHT22;22600;48.186;11.526;2023-04-03T13:03:56;22.30;54.40
34640;DHT22;22600;48.186;11.526;2023-04-03T13:06:26;22.30;54.60
34640;DHT22;22600;48.186;11.526;2023-04-03T13:08:53;22.30;54.60
34640;DHT22;22600;48.186;11.526;2023-04-03T13:11:19;22.40;54.60
34640;DHT22;22600;48.186;11.526;2023-04-03T13:13:59;22.30;54.60
34640;DHT22;22600;48.186;11.526;2023-04-03T13:16:25;22.30;54.60
34640;DHT22;22600;48.186;11.526;2023-04-03T13:18:52;22.40;54.60
34640;DHT22;22600;48.186;11.526;2023-04-03T13:21:19;22.40;54.50
34640;DHT22;22600;48.186;11.526;2023-04-03T13:23:46;22.30;54.50
34640;DHT22;22600;48.186;11.526;2023-04-03T13:26:17;22.30;54.40
34640;DHT22;22600;48.186;11.526;2023-04-03T13:28:44;22.30;54.40
34640;DHT22;22600;48.186;11.526;2023-04-03T13:36:19;22.30;54.40
34640;DHT22;22600;48.186;11.526;2023-04-03T13:38:45;22.30;54.40
34640;DHT22;22600;48.186;11.526;2023-04-03T13:41:22;22.30;54.50
34640;DHT22;22600;48.186;11.526;2023-04-03T13:43:49;22.30;54.40
34640;DHT22;22600;48.186;11.526;2023-04-03T13:48:41;23.60;55.00
34640;DHT22;22600;48.186;11.526;2023-04-03T13:53:41;22.30;54.30
34640;DHT22;22600;48.186;11.526;2023-04-03T13:56:08;22.30;54.40
34640;DHT22;22600;48.186;11.526;2023-04-03T13:58:35;22.30;54.30
34640;DHT22;22600;48.186;11.526;2023-04-03T14:01:14;22.30;54.30
34640;DHT22;22600;48.186;11.526;2023-04-03T14:03:47;22.30;54.30
34640;DHT22;22600;48.186;11.526;2023-04-03T14:06:16;22.30;54.30
34640;DHT22;22600;48.186;11.526;2023-04-03T14:08:43;22.30;54.90
34640;DHT22;22600;48.186;11.526;2023-04-03T14:11:10;21.10;53.70
34640;DHT22;22600;48.186;11.526;2023-04-03T14:13:37;22.30;54.40
34640;DHT22;22600;48.186;11.526;2023-04-03T14:16:03;22.30;54.40
34640;DHT22;22600;48.186;11.526;2023-04-03T14:18:28;22.30;54.40
34640;DHT22;22600;48.186;11.526;2023-04-03T14:20:54;22.30;54.30
34640;DHT22;22600;48.186;11.526;2023-04-03T14:23:19;22.30;54.40
34640;DHT22;22600;48.186;11.526;2023-04-03T14:25:45;22.30;54.40
34640;DHT22;22600;48.186;11.526;2023-04-03T14:28:15;18.90;52.70
34640;DHT22;22600;48.186;11.526;2023-04-03T14:30:41;22.30;54.30
34640;DHT22;22600;48.186;11.526;2023-04-03T14:33:09;22.30;54.30
34640;DHT22;22600;48.186;11.526;2023-04-03T14:35:36;22.30;54.30
34640;DHT22;22600;48.186;11.526;2023-04-03T14:38:02;22.30;54.30
34640;DHT22;22600;48.186;11.526;2023-04-03T14:40:27;19.30;52.80
34640;DHT22;22600;48.186;11.526;2023-04-03T14:42:53;22.30;54.30
34640;DHT22;22600;48.186;11.526;2023-04-03T14:45:21;22.40;54.30
34640;DHT22;22600;48.186;11.526;2023-04-03T14:47:51;22.30;54.20
34640;DHT22;22600;48.186;11.526;2023-04-03T14:50:19;22.30;54.20
34640;DHT22;22600;48.186;11.526;2023-04-03T14:52:46;22.30;54.20
34640;DHT22;22600;48.186;11.526;2023-04-03T14:55:14;22.30;54.20
34640;DHT22;22600;48.186;11.526;2023-04-03T14:57:39;22.30;54.20
34640;DHT22;22600;48.186;11.526;2023-04-03T15:00:07;22.30;54.20
34640;DHT22;22600;48.186;11.526;2023-04-03T15:02:36;22.30;54.20
34640;DHT22;22600;48.186;11.526;2023-04-03T15:05:04;22.30;54.20
34640;DHT22;22600;48.186;11.526;2023-04-03T15:07:32;22.30;54.20
34640;DHT22;22600;48.186;11.526;2023-04-03T15:10:05;22.30;54.20
34640;DHT22;22600;48.186;11.526;2023-04-03T15:12:31;22.30;54.10
34640;DHT22;22600;48.186;11.526;2023-04-03T15:14:57;22.30;54.10
34640;DHT22;22600;48.186;11.526;2023-04-03T15:17:22;22.30;54.10
34640;DHT22;22600;48.186;11.526;2023-04-03T15:19:48;22.30;54.10
34640;DHT22;22600;48.186;11.526;2023-04-03T15:22:15;22.30;54.10
34640;DHT22;22600;48.186;11.526;2023-04-03T15:24:41;22.30;54.10
34640;DHT22;22600;48.186;11.526;2023-04-03T15:27:07;22.50;54.20
34640;DHT22;22600;48.186;11.526;2023-04-03T15:29:32;22.30;54.00
34640;DHT22;22600;48.186;11.526;2023-04-03T15:31:58;22.30;54.10
34640;DHT22;22600;48.186;11.526;2023-04-03T15:34:23;22.30;54.10
34640;DHT22;22600;48.186;11.526;2023-04-03T15:36:49;22.30;54.00
34640;DHT22;22600;48.186;11.526;2023-04-03T15:39:17;22.40;54.00
34640;DHT22;22600;48.186;11.526;2023-04-03T15:41:43;25.00;54.30
34640;DHT22;22600;48.186;11.526;2023-04-03T15:44:08;22.30;52.80
34640;DHT22;22600;48.186;11.526;2023-04-03T15:46:34;22.30;52.80
34640;DHT22;22600;48.186;11.526;2023-04-03T15:49:00;22.30;53.10
34640;DHT22;22600;48.186;11.526;2023-04-03T15:51:26;22.30;53.40
34640;DHT22;22600;48.186;11.526;2023-04-03T15:53:51;22.30;53.20
34640;DHT22;22600;48.186;11.526;2023-04-03T15:56:17;22.30;53.10
34640;DHT22;22600;48.186;11.526;2023-04-03T15:58:42;22.30;53.30
34640;DHT22;22600;48.186;11.526;2023-04-03T16:01:09;22.30;53.40
34640;DHT22;22600;48.186;11.526;2023-04-03T16:03:35;22.30;53.40
34640;DHT22;22600;48.186;11.526;2023-04-03T16:06:00;22.30;53.60
34640;DHT22;22600;48.186;11.526;2023-04-03T16:08:26;22.30;53.80
34640;DHT22;22600;48.186;11.526;2023-04-03T16:10:52;22.20;53.90
34640;DHT22;22600;48.186;11.526;2023-04-03T16:13:17;22.30;54.00
34640;DHT22;22600;48.186;11.526;2023-04-03T16:15:43;22.30;54.10
34640;DHT22;22600;48.186;11.526;2023-04-03T16:18:08;22.30;54.20
34640;DHT22;22600;48.186;11.526;2023-04-03T16:20:35;22.30;54.30
34640;DHT22;22600;48.186;11.526;2023-04-03T16:23:00;22.30;54.40
34640;DHT22;22600;48.186;11.526;2023-04-03T16:25:26;22.30;54.50
34640;DHT22;22600;48.186;11.526;2023-04-03T16:27:52;22.40;54.60
34640;DHT22;22600;48.186;11.526;2023-04-03T16:30:18;22.40;54.70
34640;DHT22;22600;48.186;11.526;2023-04-03T16:32:43;22.40;54.80
34640;DHT22;22600;48.186;11.526;2023-04-03T16:35:09;23.50;55.40
34640;DHT22;22600;48.186;11.526;2023-04-03T16:37:36;22.40;54.90